Time;durP1;ratioP1;P1;durP2;ratioP2;P2;SDS_P1;SDS_P2;PMS_P1;PMS_P2;Temp;Humidity;BMP_temperature;BMP_pressure;BME280_temperature;BME280_humidity;BME280_pressure;Samples;Min_cycle;Max_cycle;Signal;HPM_P1;HPM_P2
2022/08/21 00:02:13;;;;;;;4.15;2.05;;;;;;;17.40;100.00;96386.56;5058486;28;20319;-67
2022/08/21 00:04:40;;;;;;;3.47;2.00;;;;;;;17.27;100.00;96388.47;5057153;28;20208;-65
2022/08/21 00:07:06;;;;;;;2.60;1.80;;;;;;;17.25;100.00;96386.03;5058486;28;20690;-67
2022/08/21 00:09:33;;;;;;;5.15;2.40;;;;;;;17.26;100.00;96382.34;5058287;28;20201;-67
2022/08/21 00:11:59;;;;;;;3.92;2.35;;;;;;;17.14;100.00;96381.38;5057538;28;20230;-66
2022/08/21 00:14:26;;;;;;;3.10;2.17;;;;;;;17.21;100.00;96378.69;5056158;28;20197;-66
2022/08/21 00:16:52;;;;;;;2.80;2.10;;;;;;;17.19;100.00;96378.88;5058015;28;20210;-66
2022/08/21 00:19:21;;;;;;;2.17;1.70;;;;;;;17.26;100.00;96370.88;5057557;28;20216;-67
2022/08/21 00:21:48;;;;;;;4.72;2.10;;;;;;;17.18;100.00;96376.41;5058065;28;20897;-67
2022/08/21 00:24:14;;;;;;;3.28;2.17;;;;;;;17.22;100.00;96373.13;5054346;28;20295;-67
2022/08/21 00:26:42;;;;;;;4.57;2.30;;;;;;;17.16;100.00;96370.50;5057649;28;20208;-65
2022/08/21 00:29:09;;;;;;;5.47;2.25;;;;;;;17.17;100.00;96370.28;5057427;28;20660;-66
2022/08/21 00:31:36;;;;;;;4.22;2.25;;;;;;;17.18;100.00;96369.25;5057966;28;20892;-66
2022/08/21 00:34:02;;;;;;;3.45;2.22;;;;;;;17.14;100.00;96369.91;5056996;28;20204;-67
2022/08/21 00:36:30;;;;;;;3.45;2.20;;;;;;;17.22;100.00;96365.16;5057629;28;20196;-67
2022/08/21 00:38:57;;;;;;;5.80;2.50;;;;;;;17.12;100.00;96363.97;5057340;28;20208;-67
2022/08/21 00:41:24;;;;;;;2.92;2.13;;;;;;;17.10;100.00;96366.84;5057638;28;20196;-67
2022/08/21 00:43:51;;;;;;;3.53;2.10;;;;;;;17.12;100.00;96362.13;5056683;28;20224;-66
2022/08/21 00:46:18;;;;;;;4.32;2.42;;;;;;;17.12;100.00;96356.78;5057530;28;20291;-66
2022/08/21 00:48:44;;;;;;;2.47;1.90;;;;;;;17.08;100.00;96351.28;5057060;28;20204;-67
2022/08/21 00:51:22;;;;;;;3.85;2.50;;;;;;;17.22;100.00;96353.66;5057389;28;21237;-67
2022/08/21 00:53:54;;;;;;;4.53;2.80;;;;;;;17.16;100.00;96359.84;5056678;28;20236;-67
2022/08/21 00:56:23;;;;;;;3.60;2.40;;;;;;;17.02;100.00;96346.81;5057872;28;20201;-67
2022/08/21 00:58:50;;;;;;;4.00;2.30;;;;;;;16.97;100.00;96355.47;5056804;28;20208;-67
2022/08/21 01:01:16;;;;;;;4.45;2.70;;;;;;;16.88;100.00;96355.91;5055914;28;20216;-67
2022/08/21 01:03:43;;;;;;;3.40;2.40;;;;;;;16.93;100.00;96348.09;5056589;28;20228;-67
2022/08/21 01:06:09;;;;;;;3.97;2.35;;;;;;;16.88;100.00;96351.41;5057182;28;20196;-67
2022/08/21 01:08:36;;;;;;;5.38;3.00;;;;;;;17.03;100.00;96354.63;5056091;28;20200;-67
2022/08/21 01:11:05;;;;;;;3.50;2.45;;;;;;;16.97;100.00;96350.13;5057246;28;20599;-67
2022/08/21 01:13:34;;;;;;;4.13;2.78;;;;;;;17.00;100.00;96348.88;5056324;28;20225;-67
2022/08/21 01:16:04;;;;;;;5.68;2.50;;;;;;;17.01;100.00;96350.53;5056994;28;20200;-67
2022/08/21 01:18:32;;;;;;;4.75;2.58;;;;;;;16.93;100.00;96350.75;5057317;28;20192;-67
2022/08/21 01:21:20;;;;;;;4.88;2.38;;;;;;;17.07;100.00;96360.31;5057056;28;20231;-67
2022/08/21 01:23:50;;;;;;;5.80;3.00;;;;;;;16.94;100.00;96353.22;5053214;28;20247;-67
2022/08/21 01:26:21;;;;;;;3.97;2.88;;;;;;;16.95;100.00;96360.16;5056810;28;20200;-67
2022/08/21 01:28:53;;;;;;;6.10;3.20;;;;;;;17.00;100.00;96352.34;5056813;28;20211;-67
2022/08/21 01:31:23;;;;;;;4.25;2.60;;;;;;;16.97;100.00;96354.63;5056730;28;20201;-67
2022/08/21 01:33:50;;;;;;;3.85;2.63;;;;;;;16.80;100.00;96348.16;5056498;28;20235;-67
2022/08/21 01:36:18;;;;;;;4.43;2.50;;;;;;;16.77;100.00;96351.25;5056783;28;20208;-67
2022/08/21 01:38:44;;;;;;;4.93;2.92;;;;;;;16.74;100.00;96349.84;5056087;28;20212;-67
2022/08/21 01:41:11;;;;;;;3.92;2.65;;;;;;;16.78;100.00;96351.03;5056532;28;20220;-67
2022/08/21 01:43:37;;;;;;;7.55;2.78;;;;;;;16.73;100.00;96350.06;5056194;28;20228;-67
2022/08/21 01:46:04;;;;;;;5.50;3.25;;;;;;;16.73;100.00;96348.19;5056193;28;20196;-67
2022/08/21 01:48:31;;;;;;;5.28;3.10;;;;;;;16.71;100.00;96338.78;5056704;28;20200;-67
2022/08/21 01:50:57;;;;;;;3.38;2.53;;;;;;;16.62;100.00;96340.91;5056776;28;20204;-67
2022/08/21 01:53:25;;;;;;;3.63;2.70;;;;;;;16.67;100.00;96342.91;5055548;28;20224;-67
2022/08/21 01:55:52;;;;;;;8.98;3.58;;;;;;;16.62;100.00;96348.03;5056573;28;20212;-67
2022/08/21 01:58:18;;;;;;;3.28;2.65;;;;;;;16.59;100.00;96346.63;5056752;28;20204;-67
2022/08/21 02:00:45;;;;;;;4.22;2.85;;;;;;;16.59;100.00;96354.59;5056505;28;20255;-67
2022/08/21 02:03:11;;;;;;;3.70;2.70;;;;;;;16.54;100.00;96356.28;5055899;28;20224;-67
2022/08/21 02:05:38;;;;;;;6.00;2.58;;;;;;;16.58;100.00;96349.50;5056764;28;20262;-67
2022/08/21 02:08:07;;;;;;;6.03;2.70;;;;;;;16.64;100.00;96338.03;5056180;28;20656;-68
2022/08/21 02:10:35;;;;;;;4.22;3.03;;;;;;;16.65;100.00;96344.97;5056055;28;20200;-67
2022/08/21 02:13:02;;;;;;;5.43;3.10;;;;;;;16.56;100.00;96341.72;5055512;28;20231;-68
2022/08/21 02:15:31;;;;;;;8.73;2.95;;;;;;;16.54;100.00;96338.44;5056584;28;20192;-68
2022/08/21 02:18:00;;;;;;;6.07;3.10;;;;;;;16.52;100.00;96337.03;5055759;28;20205;-69
2022/08/21 02:20:28;;;;;;;7.25;3.88;;;;;;;16.46;100.00;96332.56;5055583;28;20220;-69
2022/08/21 02:22:55;;;;;;;6.38;3.90;;;;;;;16.45;100.00;96340.78;5052852;28;20229;-68
2022/08/21 02:25:23;;;;;;;6.43;3.75;;;;;;;16.48;100.00;96337.69;5056240;28;20205;-68
2022/08/21 02:27:51;;;;;;;8.07;3.80;;;;;;;16.44;100.00;96321.31;5055769;28;20205;-68
2022/08/21 02:30:22;;;;;;;9.00;4.20;;;;;;;16.46;100.00;96324.59;5056443;28;20200;-68
2022/08/21 02:32:49;;;;;;;6.95;4.00;;;;;;;16.32;100.00;96322.16;5055708;28;20235;-67
2022/08/21 02:35:15;;;;;;;7.03;3.58;;;;;;;16.29;100.00;96322.59;5056068;28;20205;-68
2022/08/21 02:37:47;;;;;;;5.80;3.17;;;;;;;16.41;100.00;96319.09;5058612;28;20204;-68
2022/08/21 02:40:16;;;;;;;4.18;3.10;;;;;;;16.29;100.00;96327.91;5059344;28;20225;-68
2022/08/21 02:42:43;;;;;;;5.20;3.20;;;;;;;16.20;100.00;96331.81;5058721;28;20230;-68
2022/08/21 02:45:13;;;;;;;7.43;3.08;;;;;;;16.28;100.00;96327.13;5059811;28;20261;-68
2022/08/21 02:47:39;;;;;;;3.83;2.95;;;;;;;16.14;100.00;96328.16;5055904;28;20235;-69
2022/08/21 02:50:07;;;;;;;6.72;2.90;;;;;;;16.24;100.00;96325.88;5059208;28;20202;-68
2022/08/21 02:52:34;;;;;;;5.35;2.75;;;;;;;16.07;100.00;96327.31;5058914;28;20232;-68
2022/08/21 02:55:01;;;;;;;5.97;3.10;;;;;;;16.09;100.00;96322.63;5060054;28;20555;-67
2022/08/21 02:57:27;;;;;;;4.03;2.92;;;;;;;16.09;100.00;96325.28;5058947;28;20201;-69
2022/08/21 02:59:54;;;;;;;4.03;2.80;;;;;;;16.05;100.00;96326.75;5059587;28;20204;-68
2022/08/21 03:02:22;;;;;;;4.38;2.85;;;;;;;16.18;100.00;96326.69;5058516;28;20220;-68
2022/08/21 03:04:48;;;;;;;4.25;2.60;;;;;;;16.10;100.00;96326.94;5058460;28;20261;-68
2022/08/21 03:07:15;;;;;;;3.88;2.83;;;;;;;16.08;100.00;96326.31;5058785;28;20672;-68
2022/08/21 03:09:41;;;;;;;5.82;2.70;;;;;;;16.10;100.00;96326.94;5059880;28;20204;-67
2022/08/21 03:12:08;;;;;;;4.90;2.67;;;;;;;16.11;100.00;96323.22;5058919;28;20224;-68
2022/08/21 03:14:34;;;;;;;5.15;3.13;;;;;;;16.09;100.00;96327.94;5059035;28;21324;-69
2022/08/21 03:17:01;;;;;;;4.10;2.95;;;;;;;16.07;100.00;96321.22;5059737;28;20204;-68
2022/08/21 03:19:29;;;;;;;4.90;2.60;;;;;;;16.18;100.00;96326.69;5058550;28;21081;-68
2022/08/21 03:21:55;;;;;;;6.38;2.85;;;;;;;16.09;100.00;96322.63;5058762;28;20228;-69
2022/08/21 03:24:22;;;;;;;4.25;3.08;;;;;;;16.10;100.00;96324.28;5055759;28;20201;-68
2022/08/21 03:26:48;;;;;;;6.10;3.17;;;;;;;16.13;100.00;96331.81;5059045;28;20204;-68
2022/08/21 03:29:15;;;;;;;3.75;2.72;;;;;;;16.15;100.00;96332.44;5058437;28;20208;-69
2022/08/21 03:31:42;;;;;;;6.05;3.70;;;;;;;15.97;100.00;96337.59;5058265;28;20753;-68
2022/08/21 03:34:08;;;;;;;5.28;3.45;;;;;;;16.18;100.00;96334.69;5057168;28;20204;-68
2022/08/21 03:36:36;;;;;;;6.57;3.53;;;;;;;16.28;100.00;96335.09;5058756;28;20212;-68
2022/08/21 03:39:03;;;;;;;7.00;3.88;;;;;;;16.12;100.00;96332.84;5058170;28;20207;-68
2022/08/21 03:41:30;;;;;;;12.90;4.15;;;;;;;16.08;100.00;96325.50;5058574;28;20224;-68
2022/08/21 03:43:57;;;;;;;15.40;3.88;;;;;;;15.93;100.00;96331.03;5057353;28;20220;-68
2022/08/21 03:46:23;;;;;;;23.10;3.92;;;;;;;15.89;100.00;96323.69;5058082;28;20212;-68
2022/08/21 03:48:49;;;;;;;22.95;4.03;;;;;;;15.92;100.00;96326.78;5057812;28;20204;-68
2022/08/21 03:51:16;;;;;;;17.88;4.40;;;;;;;15.61;100.00;96333.75;5057624;28;20207;-68
2022/08/21 03:53:44;;;;;;;15.40;3.33;;;;;;;15.71;100.00;96328.03;5057494;28;20703;-68
2022/08/21 03:56:11;;;;;;;14.20;4.00;;;;;;;15.63;100.00;96333.53;5058186;28;20224;-68
2022/08/21 03:58:39;;;;;;;21.55;3.75;;;;;;;15.58;100.00;96331.50;5057563;28;20212;-68
2022/08/21 04:01:06;;;;;;;8.98;3.72;;;;;;;15.84;100.00;96339.44;5058088;28;20274;-68
2022/08/21 04:03:36;;;;;;;6.03;3.78;;;;;;;16.01;100.00;96341.47;5057556;28;20233;-70
2022/08/21 04:06:02;;;;;;;9.73;4.00;;;;;;;16.05;100.00;96347.16;5058251;28;20680;-68
2022/08/21 04:08:29;;;;;;;5.70;3.53;;;;;;;16.06;100.00;96344.31;5057993;28;20200;-68
2022/08/21 04:10:59;;;;;;;11.55;5.22;;;;;;;16.14;100.00;96341.44;5058274;28;20679;-68
2022/08/21 04:13:26;;;;;;;7.40;4.80;;;;;;;16.08;100.00;96344.13;5057344;28;20224;-68
2022/08/21 04:15:53;;;;;;;12.70;3.70;;;;;;;15.87;100.00;96350.50;5057437;28;20197;-68
2022/08/21 04:18:19;;;;;;;10.95;3.80;;;;;;;15.86;100.00;96354.16;5057843;28;20197;-69
2022/08/21 04:20:49;;;;;;;4.93;3.28;;;;;;;15.97;100.00;96348.22;5057489;28;20224;-69
2022/08/21 04:23:15;;;;;;;5.40;3.25;;;;;;;15.96;100.00;96356.38;5054542;28;20220;-68
2022/08/21 04:25:42;;;;;;;6.03;3.80;;;;;;;15.99;100.00;96356.78;5056937;28;20204;-69
2022/08/21 04:28:10;;;;;;;6.18;4.00;;;;;;;16.17;100.00;96356.97;5058174;28;21408;-68
2022/08/21 04:30:36;;;;;;;6.95;3.97;;;;;;;16.09;100.00;96357.19;5057420;28;20621;-68
2022/08/21 04:33:03;;;;;;;5.60;3.60;;;;;;;16.13;100.00;96360.25;5056312;28;20241;-68
2022/08/21 04:35:31;;;;;;;5.32;3.65;;;;;;;16.19;100.00;96365.56;5057126;28;21119;-68
2022/08/21 04:37:58;;;;;;;9.52;3.83;;;;;;;16.16;100.00;96365.97;5057504;28;20200;-69
2022/08/21 04:40:28;;;;;;;7.50;3.60;;;;;;;16.25;100.00;96371.88;5057603;28;20204;-68
2022/08/21 04:42:57;;;;;;;8.75;3.50;;;;;;;16.32;100.00;96376.19;5056312;28;20228;-69
2022/08/21 04:45:28;;;;;;;5.93;3.67;;;;;;;16.40;100.00;96372.50;5057728;28;20587;-68
2022/08/21 04:47:58;;;;;;;5.18;3.28;;;;;;;16.39;100.00;96374.31;5057340;28;20221;-68
2022/08/21 04:50:28;;;;;;;4.78;3.45;;;;;;;16.30;100.00;96380.91;5058055;28;20204;-68
2022/08/21 04:52:56;;;;;;;4.97;2.90;;;;;;;16.32;100.00;96375.34;5056307;28;20240;-68
2022/08/21 04:55:25;;;;;;;4.30;2.67;;;;;;;16.19;100.00;96378.03;5057618;28;20196;-68
2022/08/21 04:57:53;;;;;;;4.68;3.20;;;;;;;16.26;100.00;96377.03;5057015;28;20215;-68
2022/08/21 05:00:20;;;;;;;4.50;3.08;;;;;;;16.40;100.00;96386.59;5056144;28;20211;-68
2022/08/21 05:02:52;;;;;;;8.48;3.28;;;;;;;16.48;100.00;96389.84;5056168;28;20221;-68
2022/08/21 05:05:18;;;;;;;10.57;3.17;;;;;;;16.13;100.00;96395.63;5056386;28;20208;-69
2022/08/21 05:07:46;;;;;;;6.75;2.95;;;;;;;16.20;100.00;96383.13;5056926;28;20204;-68
2022/08/21 05:10:13;;;;;;;5.45;2.97;;;;;;;16.25;100.00;96390.50;5056608;28;20745;-69
2022/08/21 05:12:42;;;;;;;7.10;2.75;;;;;;;16.28;100.00;96390.94;5056312;28;20390;-68
2022/08/21 05:15:09;;;;;;;6.93;2.95;;;;;;;16.06;100.00;96386.84;5056760;28;20204;-67
2022/08/21 05:17:36;;;;;;;5.22;2.95;;;;;;;16.13;100.00;96382.34;5056889;28;20197;-68
2022/08/21 05:20:04;;;;;;;6.72;2.67;;;;;;;16.19;100.00;96389.50;5056234;28;20882;-68
2022/08/21 05:22:31;;;;;;;11.23;2.67;;;;;;;16.11;100.00;96381.72;5055628;28;20238;-69
2022/08/21 05:24:58;;;;;;;3.85;3.05;;;;;;;15.97;100.00;96385.44;5057200;28;20660;-68
2022/08/21 05:27:25;;;;;;;11.48;2.70;;;;;;;15.89;100.00;96390.16;5056621;28;20343;-68
2022/08/21 05:29:51;;;;;;;8.30;2.90;;;;;;;15.96;100.00;96388.28;5056089;28;20665;-68
2022/08/21 05:32:17;;;;;;;5.72;2.80;;;;;;;15.90;100.00;96387.28;5055974;28;20224;-69
2022/08/21 05:34:44;;;;;;;15.50;2.90;;;;;;;15.89;100.00;96390.94;5056687;28;20212;-68
2022/08/21 05:37:12;;;;;;;4.57;3.17;;;;;;;15.84;100.00;96393.41;5055440;28;20205;-68
2022/08/21 05:39:39;;;;;;;12.45;3.35;;;;;;;15.69;100.00;96394.63;5056040;28;20200;-68
2022/08/21 05:42:06;;;;;;;4.70;3.20;;;;;;;15.80;100.00;96390.56;5053075;28;20224;-68
2022/08/21 05:44:33;;;;;;;5.03;3.20;;;;;;;15.78;100.00;96400.56;5053745;28;20211;-68
2022/08/21 05:47:04;;;;;;;6.07;3.53;;;;;;;15.97;100.00;96398.72;5054435;28;20576;-68
2022/08/21 05:49:30;;;;;;;8.73;3.95;;;;;;;15.73;100.00;96395.84;5053939;28;20222;-69
2022/08/21 05:51:57;;;;;;;5.93;3.78;;;;;;;15.85;100.00;96400.34;5055712;28;20635;-68
2022/08/21 05:54:25;;;;;;;7.60;4.70;;;;;;;15.96;100.00;96401.56;5055627;28;20522;-68
2022/08/21 05:56:51;;;;;;;7.90;4.55;;;;;;;16.13;100.00;96397.47;5055921;28;20208;-68
2022/08/21 05:59:18;;;;;;;8.00;4.35;;;;;;;16.16;100.00;96397.06;5055897;28;20200;-68
2022/08/21 06:01:45;;;;;;;8.57;5.32;;;;;;;16.27;100.00;96388.50;5055392;28;20236;-68
2022/08/21 06:04:11;;;;;;;10.85;5.35;;;;;;;16.38;100.00;96390.50;5055122;28;20211;-68
2022/08/21 06:06:38;;;;;;;7.43;4.93;;;;;;;16.47;100.00;96391.91;5056118;28;20205;-68
2022/08/21 06:09:05;;;;;;;8.90;5.68;;;;;;;16.46;100.00;96398.25;5055097;28;20205;-68
2022/08/21 06:11:34;;;;;;;12.52;5.03;;;;;;;16.72;100.00;96391.00;5058225;28;20969;-69
2022/08/21 06:14:00;;;;;;;8.88;4.80;;;;;;;16.53;100.00;96389.22;5059268;28;20223;-68
2022/08/21 06:16:28;;;;;;;10.15;5.68;;;;;;;16.41;100.00;96390.91;5058399;28;20209;-68
2022/08/21 06:18:54;;;;;;;7.32;4.88;;;;;;;16.23;100.00;96393.38;5059889;28;20514;-68
2022/08/21 06:21:21;;;;;;;9.07;5.53;;;;;;;16.39;100.00;96398.25;5059817;28;20599;-68
2022/08/21 06:23:47;;;;;;;9.57;5.13;;;;;;;16.17;100.00;96391.53;5058485;28;20746;-68
2022/08/21 06:26:15;;;;;;;8.82;5.68;;;;;;;16.51;100.00;96393.94;5059891;28;20352;-69
2022/08/21 06:28:43;;;;;;;11.18;6.40;;;;;;;16.37;100.00;96395.00;5059974;28;20204;-68
2022/08/21 06:31:17;;;;;;;8.48;5.50;;;;;;;16.63;100.00;96395.72;5058937;28;20679;-68
2022/08/21 06:33:43;;;;;;;13.65;5.85;;;;;;;16.62;100.00;96398.59;5058679;28;20223;-68
2022/08/21 06:36:10;;;;;;;9.88;6.25;;;;;;;16.86;100.00;96396.03;5060284;28;20227;-68
2022/08/21 06:38:37;;;;;;;8.95;5.60;;;;;;;17.00;100.00;96397.63;5059659;28;20204;-68
2022/08/21 06:41:05;;;;;;;9.85;5.90;;;;;;;17.15;100.00;96396.31;5058107;28;20447;-67
2022/08/21 06:43:31;;;;;;;10.27;6.00;;;;;;;17.17;100.00;96394.25;5058382;28;20708;-68
2022/08/21 06:45:59;;;;;;;9.60;5.95;;;;;;;17.37;100.00;96394.97;5059337;28;20215;-68
2022/08/21 06:48:26;;;;;;;9.27;5.88;;;;;;;17.33;100.00;96398.28;5059270;28;20624;-68
2022/08/21 06:50:53;;;;;;;8.75;5.65;;;;;;;17.39;100.00;96389.44;5058894;28;20500;-68
2022/08/21 06:53:21;;;;;;;8.90;5.78;;;;;;;17.53;100.00;96396.34;5057961;28;20469;-68
2022/08/21 06:55:49;;;;;;;9.40;5.63;;;;;;;17.60;100.00;96391.75;5058645;28;20630;-68
2022/08/21 06:58:15;;;;;;;8.63;5.03;;;;;;;17.57;100.00;96395.66;5058290;28;20193;-68
2022/08/21 07:00:44;;;;;;;6.85;5.07;;;;;;;17.65;100.00;96398.06;5059204;28;20215;-68
2022/08/21 07:03:19;;;;;;;10.07;4.93;;;;;;;17.74;100.00;96389.59;5058389;28;20224;-68
2022/08/21 07:05:46;;;;;;;7.68;4.60;;;;;;;17.56;100.00;96394.03;5058606;28;20317;-68
2022/08/21 07:08:13;;;;;;;6.60;4.80;;;;;;;17.72;100.00;96394.31;5058536;28;20197;-68
2022/08/21 07:10:39;;;;;;;7.13;4.60;;;;;;;17.89;100.00;96395.41;5058869;28;20205;-68
2022/08/21 07:13:06;;;;;;;6.65;4.40;;;;;;;17.81;100.00;96392.22;5057724;28;20594;-68
2022/08/21 07:15:32;;;;;;;6.80;4.07;;;;;;;17.86;100.00;96390.50;5058819;28;20196;-68
2022/08/21 07:18:00;;;;;;;6.38;4.00;;;;;;;17.99;100.00;96398.41;5058912;28;20200;-69
2022/08/21 07:20:29;;;;;;;6.03;4.40;;;;;;;18.17;100.00;96393.13;5058240;28;20664;-68
2022/08/21 07:22:57;;;;;;;5.32;3.97;;;;;;;18.17;100.00;96392.31;5056503;28;20228;-69
2022/08/21 07:25:23;;;;;;;7.10;4.07;;;;;;;18.06;100.00;96391.16;5058877;28;20197;-69
2022/08/21 07:27:50;;;;;;;5.10;3.58;;;;;;;18.07;100.00;96391.97;5058275;28;20589;-68
2022/08/21 07:30:16;;;;;;;4.88;3.50;;;;;;;18.22;100.00;96384.50;5058488;28;20211;-68
2022/08/21 07:32:43;;;;;;;6.70;3.80;;;;;;;18.40;100.00;96377.31;5057768;28;20224;-68
2022/08/21 07:35:10;;;;;;;7.95;3.97;;;;;;;18.51;100.00;96382.72;5057737;28;20201;-68
2022/08/21 07:37:38;;;;;;;6.32;3.90;;;;;;;18.62;100.00;96368.66;5058281;28;20827;-66
2022/08/21 07:40:06;;;;;;;6.07;3.58;;;;;;;18.74;100.00;96374.06;5058835;28;20644;-66
2022/08/21 07:42:32;;;;;;;5.78;4.00;;;;;;;18.90;100.00;96374.22;5057221;28;20730;-67
2022/08/21 07:44:59;;;;;;;5.45;3.65;;;;;;;18.87;100.00;96377.38;5057495;28;20319;-66
2022/08/21 07:47:25;;;;;;;4.80;3.20;;;;;;;19.01;100.00;96376.16;5058211;28;20196;-67
2022/08/21 07:49:52;;;;;;;4.93;3.22;;;;;;;19.23;100.00;96374.66;5059246;28;20213;-68
2022/08/21 07:52:19;;;;;;;7.65;3.58;;;;;;;19.16;98.39;96382.75;5056153;28;20965;-67
2022/08/21 07:54:47;;;;;;;7.00;3.35;;;;;;;19.35;97.40;96371.00;5057646;28;20207;-66
2022/08/21 07:57:13;;;;;;;6.78;3.42;;;;;;;19.41;99.66;96372.75;5058321;28;20196;-67
2022/08/21 07:59:40;;;;;;;6.90;3.30;;;;;;;19.35;99.89;96371.00;5058164;28;20683;-67
2022/08/21 08:02:07;;;;;;;4.85;3.20;;;;;;;19.52;98.50;96368.47;5057039;28;20224;-66
2022/08/21 08:04:34;;;;;;;4.68;2.80;;;;;;;19.55;100.00;96368.00;5057663;28;20254;-66
2022/08/21 08:07:00;;;;;;;7.15;3.55;;;;;;;19.63;97.91;96361.28;5057625;28;20196;-67
2022/08/21 08:09:26;;;;;;;5.22;3.50;;;;;;;19.74;95.56;96362.34;5057500;28;20208;-66
2022/08/21 08:11:54;;;;;;;10.00;3.47;;;;;;;19.97;95.99;96368.59;5057727;28;20211;-67
2022/08/21 08:14:21;;;;;;;5.72;3.30;;;;;;;20.07;93.58;96368.81;5056891;28;20295;-66
2022/08/21 08:16:47;;;;;;;4.97;3.10;;;;;;;19.96;97.71;96366.13;5056958;28;20581;-67
2022/08/21 08:19:14;;;;;;;6.43;3.70;;;;;;;20.15;96.45;96362.31;5057941;28;20494;-67
2022/08/21 08:21:40;;;;;;;6.95;3.47;;;;;;;20.40;95.31;96361.00;5057081;28;20718;-67
2022/08/21 08:24:08;;;;;;;7.05;2.90;;;;;;;20.43;90.30;96360.53;5056099;28;20291;-66
2022/08/21 08:26:34;;;;;;;8.82;3.30;;;;;;;20.37;91.35;96361.50;5057164;28;20208;-67
2022/08/21 08:29:02;;;;;;;6.22;3.25;;;;;;;20.61;89.07;96355.03;5057049;28;20587;-66
2022/08/21 08:31:29;;;;;;;5.53;3.08;;;;;;;20.65;87.49;96359.69;5057517;28;20333;-68
2022/08/21 08:33:55;;;;;;;7.93;3.03;;;;;;;20.79;86.85;96352.25;5055463;28;20224;-67
2022/08/21 08:36:33;;;;;;;5.63;2.97;;;;;;;21.05;87.50;96361.38;5056781;28;20200;-67
2022/08/21 08:39:00;;;;;;;7.47;3.58;;;;;;;20.92;86.33;96352.78;5056277;28;20204;-67
2022/08/21 08:41:27;;;;;;;7.70;3.30;;;;;;;21.13;83.30;96355.63;5056964;28;20200;-67
2022/08/21 08:43:56;;;;;;;6.85;3.38;;;;;;;21.23;83.15;96360.38;5056131;28;20730;-67
2022/08/21 08:46:31;;;;;;;5.95;3.10;;;;;;;21.16;81.48;96357.81;5056987;28;20262;-66
2022/08/21 08:49:04;;;;;;;5.88;3.38;;;;;;;21.18;81.87;96354.91;5056941;28;20214;-67
2022/08/21 08:51:39;;;;;;;5.72;3.42;;;;;;;21.34;86.30;96351.47;5056736;28;20200;-67
2022/08/21 08:54:10;;;;;;;8.27;3.28;;;;;;;21.45;82.56;96354.91;5055927;28;20679;-67
2022/08/21 08:56:36;;;;;;;3.88;2.70;;;;;;;21.47;80.00;96351.97;5056969;28;20197;-67
2022/08/21 08:59:10;;;;;;;7.40;2.85;;;;;;;21.67;76.12;96355.03;5056648;28;20200;-68
2022/08/21 09:01:38;;;;;;;7.13;3.47;;;;;;;21.27;79.42;96348.94;5056330;28;20208;-67
2022/08/21 09:04:05;;;;;;;9.85;3.30;;;;;;;21.59;78.72;96350.88;5055730;28;20208;-67
2022/08/21 09:06:51;;;;;;;6.35;3.28;;;;;;;21.94;77.39;96345.31;5057188;28;20205;-67
2022/08/21 09:09:34;;;;;;;6.78;2.63;;;;;;;22.03;77.90;96346.50;5055882;28;20707;-67
2022/08/21 09:12:06;;;;;;;5.38;2.78;;;;;;;22.36;81.93;96342.75;5056167;28;20224;-68
2022/08/21 09:14:46;;;;;;;5.82;3.20;;;;;;;22.45;76.95;96341.25;5056395;28;20197;-68
2022/08/21 09:17:24;;;;;;;6.80;2.97;;;;;;;22.61;75.55;96340.41;5056430;28;20205;-67
2022/08/21 09:20:04;;;;;;;10.95;3.08;;;;;;;22.65;76.67;96336.16;5056370;28;20211;-68
2022/08/21 09:22:41;;;;;;;6.10;3.35;;;;;;;22.57;72.73;96341.97;5055873;28;20224;-67
2022/08/21 09:25:13;;;;;;;6.15;3.00;;;;;;;22.65;72.49;96336.16;5056409;28;20647;-67
2022/08/21 09:27:40;;;;;;;7.65;2.63;;;;;;;22.56;71.40;96337.66;5056358;28;20212;-68
2022/08/21 09:30:09;;;;;;;4.07;2.55;;;;;;;22.78;71.57;96333.94;5055899;28;20754;-68
2022/08/21 09:32:39;;;;;;;8.02;2.90;;;;;;;23.14;71.37;96332.50;5056020;28;20224;-68
2022/08/21 09:35:09;;;;;;;9.38;2.80;;;;;;;23.07;68.46;96331.88;5055630;28;20570;-68
2022/08/21 09:37:49;;;;;;;5.68;2.65;;;;;;;23.13;68.85;96333.56;5056372;28;20196;-68
2022/08/21 09:40:30;;;;;;;8.80;2.70;;;;;;;23.12;63.81;96331.94;5056126;28;20386;-68
2022/08/21 09:42:58;;;;;;;4.80;2.45;;;;;;;23.12;64.66;96331.94;5055421;28;20236;-67
2022/08/21 09:45:25;;;;;;;8.98;3.00;;;;;;;23.17;64.05;96334.69;5055035;28;20482;-68
2022/08/21 09:47:53;;;;;;;9.15;3.10;;;;;;;22.98;67.98;96330.69;5056378;28;20207;-68
2022/08/21 09:50:23;;;;;;;6.85;2.72;;;;;;;23.51;68.03;96332.38;5056088;28;20229;-68
2022/08/21 09:52:52;;;;;;;5.40;2.53;;;;;;;23.65;63.82;96325.50;5054777;28;20746;-68
2022/08/21 09:58:18;;;;;;;8.43;2.92;;;;;;;24.49;66.91;96305.69;5056100;28;20215;-68
2022/08/21 10:00:45;;;;;;;5.72;2.65;;;;;;;24.60;63.94;96300.94;5056066;28;20205;-68
2022/08/21 10:03:18;;;;;;;8.63;2.85;;;;;;;24.52;64.96;96303.28;5054953;28;20733;-68
2022/08/21 10:05:59;;;;;;;6.18;2.78;;;;;;;24.53;60.33;96309.50;5055634;28;20541;-68
2022/08/21 10:08:28;;;;;;;9.23;2.47;;;;;;;24.53;65.62;96312.19;5056227;28;20204;-68
2022/08/21 10:10:57;;;;;;;7.32;2.65;;;;;;;24.44;65.15;96311.06;5055953;28;20696;-68
2022/08/21 10:13:37;;;;;;;4.68;2.50;;;;;;;24.69;62.91;96304.75;5055755;28;20232;-68
2022/08/21 10:16:16;;;;;;;4.15;2.33;;;;;;;24.98;60.93;96299.72;5055436;28;20294;-68
2022/08/21 10:18:51;;;;;;;6.22;2.65;;;;;;;25.00;59.12;96301.09;5056089;28;20262;-68
2022/08/21 10:21:24;;;;;;;6.45;2.72;;;;;;;25.25;60.91;96303.88;5056092;28;20211;-68
2022/08/21 10:24:02;;;;;;;6.03;2.92;;;;;;;25.15;55.37;96298.44;5054967;28;20967;-68
2022/08/21 10:26:43;;;;;;;4.60;2.47;;;;;;;25.22;57.61;96299.81;5054866;28;20223;-68
2022/08/21 10:29:21;;;;;;;9.32;2.70;;;;;;;25.46;61.07;96305.56;5055707;28;20216;-68
2022/08/21 10:31:58;;;;;;;11.52;2.38;;;;;;;25.45;57.27;96296.63;5055651;28;20196;-68
2022/08/21 10:34:35;;;;;;;9.07;2.30;;;;;;;25.55;57.39;96290.44;5054646;28;20193;-68
2022/08/21 10:37:17;;;;;;;8.63;2.42;;;;;;;25.24;55.41;96288.75;5054543;28;20874;-68
2022/08/21 10:39:52;;;;;;;6.47;2.50;;;;;;;25.66;53.78;96290.19;5055439;28;20215;-68
2022/08/21 10:42:30;;;;;;;6.88;2.35;;;;;;;25.85;53.45;96288.59;5054613;28;20228;-68
2022/08/21 10:45:12;;;;;;;4.47;2.15;;;;;;;26.20;53.36;96289.38;5055548;28;20220;-68
2022/08/21 10:47:46;;;;;;;5.38;2.38;;;;;;;26.03;58.36;96286.16;5055712;28;20208;-68
2022/08/21 10:50:25;;;;;;;7.57;2.60;;;;;;;26.05;54.39;96283.97;5055267;28;20566;-68
2022/08/21 10:53:26;;;;;;;5.45;2.25;;;;;;;26.64;52.40;96282.25;5054348;28;20597;-68
2022/08/21 10:55:57;;;;;;;5.53;2.08;;;;;;;26.95;52.42;96279.19;5039632;28;20571;-68
2022/08/21 10:58:30;;;;;;;4.90;2.20;;;;;;;26.64;49.72;96288.50;5057004;28;20207;-69
2022/08/21 11:01:04;;;;;;;5.90;2.28;;;;;;;26.16;54.50;96282.91;5059059;28;20212;-68
2022/08/21 11:03:37;;;;;;;8.77;2.17;;;;;;;26.63;51.51;96277.97;5057461;28;20224;-68
2022/08/21 11:06:09;;;;;;;7.53;2.45;;;;;;;27.01;53.82;96277.28;5058434;28;20466;-68
2022/08/21 11:08:39;;;;;;;4.70;2.42;;;;;;;27.03;51.42;96277.81;5058286;28;20201;-68
2022/08/21 11:11:10;;;;;;;3.95;2.40;;;;;;;26.70;52.00;96275.75;5059305;28;21121;-69
2022/08/21 11:13:43;;;;;;;4.57;2.30;;;;;;;27.16;46.11;96275.28;5058245;28;20228;-68
2022/08/21 11:16:17;;;;;;;3.70;2.20;;;;;;;27.36;46.47;96275.97;5058340;28;20208;-68
2022/08/21 11:18:50;;;;;;;8.18;2.20;;;;;;;26.57;48.30;96268.25;5058584;28;20203;-68
2022/08/21 11:21:30;;;;;;;4.45;2.03;;;;;;;27.09;47.06;96264.78;5058505;28;20679;-68
2022/08/21 11:24:03;;;;;;;7.95;2.17;;;;;;;27.51;47.59;96256.94;5057476;28;20655;-69
2022/08/21 11:26:37;;;;;;;12.07;2.17;;;;;;;27.10;43.86;96261.00;5058683;28;20201;-68
2022/08/21 11:29:12;;;;;;;4.28;2.10;;;;;;;27.33;48.17;96262.19;5058010;28;20212;-68
2022/08/21 11:31:50;;;;;;;4.07;2.22;;;;;;;27.25;48.00;96263.63;5059376;28;20207;-68
2022/08/21 11:34:29;;;;;;;7.30;2.40;;;;;;;27.49;46.65;96253.69;5058027;28;20570;-68
2022/08/21 11:37:07;;;;;;;7.05;2.30;;;;;;;27.47;43.02;96252.34;5056969;28;20209;-68
2022/08/21 11:39:41;;;;;;;5.65;2.20;;;;;;;27.88;45.06;96258.03;5058409;28;20201;-68